createdAt,value
2019-03-25T00:00:13.966Z,41.19
2019-03-25T00:01:13.959Z,41.24
2019-03-25T00:02:13.953Z,41.21
2019-03-25T00:03:13.947Z,41.15
2019-03-25T00:04:13.941Z,41.28
2019-03-25T00:05:13.937Z,41.17
2019-03-25T00:06:13.927Z,41.42
2019-03-25T00:07:13.917Z,41.20
2019-03-25T00:08:13.911Z,41.25
2019-03-25T00:09:13.906Z,41.21
2019-03-25T00:10:13.899Z,41.29
2019-03-25T00:11:13.895Z,41.27
2019-03-25T00:12:13.888Z,41.22
2019-03-25T00:13:13.878Z,41.17
2019-03-25T00:14:13.875Z,41.27
2019-03-25T00:15:13.869Z,41.24
2019-03-25T00:16:13.863Z,41.21
2019-03-25T00:17:13.858Z,41.18
2019-03-25T00:18:13.848Z,41.27
2019-03-25T00:19:13.843Z,41.26
2019-03-25T00:20:13.835Z,41.25
2019-03-25T00:21:13.831Z,41.34
2019-03-25T00:22:13.821Z,41.27
2019-03-25T00:23:13.817Z,41.20
2019-03-25T00:24:13.810Z,41.24
2019-03-25T00:25:13.801Z,41.24
2019-03-25T00:26:13.797Z,41.29
2019-03-25T00:27:13.790Z,41.24
2019-03-25T00:28:14.003Z,41.26
2019-03-25T00:29:13.778Z,41.24
2019-03-25T00:30:13.769Z,41.31
2019-03-25T00:31:13.764Z,41.29
2019-03-25T00:32:13.757Z,41.30
2019-03-25T00:33:13.750Z,41.31
2019-03-25T00:34:13.743Z,41.28
2019-03-25T00:35:13.737Z,41.26
2019-03-25T00:36:13.736Z,41.29
2019-03-25T00:37:13.723Z,41.32
2019-03-25T00:38:13.715Z,41.28
2019-03-25T00:39:13.706Z,41.32
2019-03-25T00:40:13.701Z,41.34
2019-03-25T00:41:13.696Z,41.33
2019-03-25T00:42:13.687Z,41.43
2019-03-25T00:43:13.684Z,41.28
2019-03-25T00:44:13.677Z,41.33
2019-03-25T00:45:13.666Z,41.43
2019-03-25T00:46:13.685Z,41.28
2019-03-25T00:47:13.679Z,41.30
2019-03-25T00:48:13.672Z,41.38
2019-03-25T00:49:13.669Z,41.30
2019-03-25T00:50:13.661Z,41.29
2019-03-25T00:51:13.653Z,41.39
2019-03-25T00:52:13.644Z,41.34
2019-03-25T00:53:13.639Z,41.26
2019-03-25T00:54:13.629Z,41.33
2019-03-25T00:55:13.625Z,41.39
2019-03-25T00:56:13.619Z,41.31
2019-03-25T00:57:13.613Z,41.31
2019-03-25T00:58:13.607Z,41.34
2019-03-25T00:59:13.598Z,41.31
2019-03-25T01:00:13.594Z,41.44
2019-03-25T01:01:13.584Z,41.35
2019-03-25T01:02:13.579Z,41.59
2019-03-25T01:03:13.574Z,41.29
2019-03-25T01:04:13.567Z,41.36
2019-03-25T01:05:13.558Z,41.31
2019-03-25T01:06:13.550Z,41.30
2019-03-25T01:07:13.545Z,41.14
2019-03-25T01:08:13.538Z,41.10
2019-03-25T01:09:13.532Z,41.11
2019-03-25T01:10:13.528Z,41.22
2019-03-25T01:11:13.518Z,41.14
2019-03-25T01:12:13.510Z,41.18
2019-03-25T01:13:13.504Z,41.14
2019-03-25T01:14:13.498Z,41.18
2019-03-25T01:15:13.490Z,41.16
2019-03-25T01:16:13.485Z,42.36
2019-03-25T01:17:13.481Z,41.17
2019-03-25T01:18:17.030Z,41.20
2019-03-25T01:19:13.462Z,41.19
2019-03-25T01:20:13.476Z,41.18
2019-03-25T01:21:13.450Z,41.16
2019-03-25T01:22:13.440Z,41.39
2019-03-25T01:23:13.432Z,41.06
2019-03-25T01:24:13.430Z,41.12
2019-03-25T01:25:13.419Z,41.11
2019-03-25T01:26:13.413Z,41.14
2019-03-25T01:27:13.429Z,41.07
2019-03-25T01:28:13.422Z,41.25
2019-03-25T01:29:13.411Z,41.17
2019-03-25T01:30:13.410Z,41.14
2019-03-25T01:31:13.400Z,41.15
2019-03-25T01:32:13.397Z,41.13
2019-03-25T01:33:13.388Z,41.13
2019-03-25T01:34:13.379Z,41.27
2019-03-25T01:35:13.376Z,41.22
2019-03-25T01:36:13.366Z,41.24
2019-03-25T01:37:13.360Z,41.18
2019-03-25T01:38:13.353Z,41.21
2019-03-25T01:39:13.344Z,41.22
2019-03-25T01:40:13.336Z,41.13
2019-03-25T01:41:13.336Z,41.26
2019-03-25T01:42:13.326Z,41.17
2019-03-25T01:43:13.340Z,41.17
2019-03-25T01:44:13.338Z,41.11
2019-03-25T01:45:13.330Z,41.19
2019-03-25T01:46:13.327Z,41.16
2019-03-25T01:47:13.318Z,41.33
2019-03-25T01:48:13.311Z,41.16
2019-03-25T01:49:13.304Z,41.32
2019-03-25T01:50:13.298Z,41.12
2019-03-25T01:51:13.288Z,41.17
2019-03-25T01:52:13.283Z,41.32
2019-03-25T01:53:13.279Z,41.17
2019-03-25T01:54:13.273Z,41.15
2019-03-25T01:55:13.892Z,41.17
2019-03-25T01:56:13.255Z,41.36
2019-03-25T01:57:13.249Z,41.32
2019-03-25T01:58:13.238Z,41.63
2019-03-25T01:59:13.236Z,41.39
2019-03-25T02:00:13.228Z,41.40
2019-03-25T02:01:13.220Z,41.35
2019-03-25T02:02:13.214Z,41.43
2019-03-25T02:03:13.214Z,41.34
2019-03-25T02:04:13.202Z,41.37
2019-03-25T02:05:13.195Z,41.49
2019-03-25T02:06:13.190Z,41.39
2019-03-25T02:07:13.181Z,41.41
2019-03-25T02:08:13.177Z,41.41
2019-03-25T02:09:13.170Z,41.42
2019-03-25T02:10:13.165Z,41.47
2019-03-25T02:11:13.157Z,41.43
2019-03-25T02:12:13.151Z,41.41
2019-03-25T02:13:13.144Z,41.34
2019-03-25T02:14:13.138Z,41.30
2019-03-25T02:15:13.129Z,41.31
2019-03-25T02:16:13.121Z,41.33
2019-03-25T02:17:13.119Z,41.36
2019-03-25T02:18:13.109Z,41.40
2019-03-25T02:19:13.102Z,41.37
2019-03-25T02:20:13.099Z,41.32
2019-03-25T02:21:13.091Z,41.46
2019-03-25T02:22:13.088Z,41.57
2019-03-25T02:23:13.202Z,41.40
2019-03-25T02:24:13.094Z,41.40
2019-03-25T02:25:24.541Z,41.41
2019-03-25T02:27:40.836Z,41.47
2019-03-25T02:28:40.826Z,41.55
2019-03-25T02:29:40.820Z,41.45
2019-03-25T02:30:41.022Z,41.45
2019-03-25T02:31:40.812Z,41.51
2019-03-25T02:32:40.806Z,41.48
2019-03-25T02:33:40.833Z,41.46
2019-03-25T02:35:40.829Z,41.53
2019-03-25T02:36:40.824Z,41.50
2019-03-25T02:37:40.814Z,41.55
2019-03-25T02:38:40.808Z,41.80
2019-03-25T02:39:40.806Z,41.48
2019-03-25T02:40:40.796Z,41.42
2019-03-25T02:41:40.790Z,41.49
2019-03-25T02:42:40.781Z,41.50
2019-03-25T02:43:40.776Z,41.43
2019-03-25T02:44:40.774Z,41.40
2019-03-25T02:45:40.769Z,41.49
2019-03-25T02:46:40.762Z,41.51
2019-03-25T02:49:08.482Z,41.53
2019-03-25T02:50:08.479Z,41.47
2019-03-25T02:51:08.462Z,41.52
2019-03-25T02:52:08.457Z,41.51
2019-03-25T02:53:08.462Z,41.56
2019-03-25T02:54:08.443Z,41.52
2019-03-25T02:55:08.432Z,41.48
2019-03-25T02:56:08.427Z,41.48
2019-03-25T02:57:08.420Z,41.42
2019-03-25T02:58:08.414Z,41.42
2019-03-25T02:59:08.405Z,41.46
2019-03-25T03:00:08.399Z,41.43
2019-03-25T03:01:08.399Z,41.58
2019-03-25T03:02:08.385Z,41.62
2019-03-25T03:03:08.378Z,41.54
2019-03-25T03:04:08.374Z,41.53
2019-03-25T03:05:08.366Z,41.49
2019-03-25T03:06:08.360Z,41.58
2019-03-25T03:07:08.356Z,41.58
2019-03-25T03:08:08.344Z,41.59
2019-03-25T03:09:08.335Z,41.73
2019-03-25T03:10:08.339Z,41.54
2019-03-25T03:11:08.346Z,41.48
2019-03-25T03:12:08.340Z,41.89
2019-03-25T03:13:08.333Z,41.43
2019-03-25T03:14:08.335Z,41.36
2019-03-25T03:15:08.335Z,41.50
2019-03-25T03:16:08.326Z,41.41
2019-03-25T03:17:08.323Z,41.42
2019-03-25T03:18:08.316Z,41.49
2019-03-25T03:19:08.316Z,41.52
2019-03-25T03:20:08.305Z,41.52
2019-03-25T03:21:08.296Z,41.38
2019-03-25T03:22:08.291Z,41.40
2019-03-25T03:23:08.284Z,41.24
2019-03-25T03:24:08.276Z,41.17
2019-03-25T03:25:08.272Z,41.29
2019-03-25T03:26:08.280Z,41.20
2019-03-25T03:27:08.259Z,41.22
2019-03-25T03:28:08.251Z,41.20
2019-03-25T03:29:08.247Z,41.19
2019-03-25T03:30:08.242Z,41.18
2019-03-25T03:31:08.236Z,41.21
2019-03-25T03:32:08.227Z,41.17
2019-03-25T03:33:08.224Z,41.22
2019-03-25T03:34:08.218Z,41.24
2019-03-25T03:35:08.217Z,41.26
2019-03-25T03:36:08.209Z,41.20
2019-03-25T03:37:08.199Z,41.10
2019-03-25T03:38:08.198Z,41.02
2019-03-25T03:39:08.201Z,41.05
2019-03-25T03:40:08.182Z,41.90
2019-03-25T03:41:08.171Z,41.22
2019-03-25T03:42:08.164Z,41.34
2019-03-25T03:43:08.159Z,41.36
2019-03-25T03:44:08.165Z,41.47
2019-03-25T03:45:08.147Z,41.46
2019-03-25T03:46:08.138Z,41.21
2019-03-25T03:47:08.134Z,40.92
2019-03-25T03:48:08.129Z,40.95
2019-03-25T03:49:08.121Z,40.92
2019-03-25T03:50:08.111Z,41.01
2019-03-25T03:51:08.108Z,40.95
2019-03-25T03:52:08.101Z,40.98
2019-03-25T03:53:08.119Z,40.75
2019-03-25T03:54:08.097Z,40.71
2019-03-25T03:55:08.095Z,40.73
2019-03-25T03:56:13.591Z,40.66
2019-03-25T03:57:10.072Z,40.80
2019-03-25T03:58:08.065Z,40.68
2019-03-25T03:59:08.057Z,40.72
2019-03-25T04:00:08.051Z,40.93
2019-03-25T04:01:08.076Z,40.84
2019-03-25T04:02:08.066Z,40.75
2019-03-25T04:03:08.063Z,41.00
2019-03-25T04:04:08.063Z,40.82
2019-03-25T04:05:08.055Z,40.69
2019-03-25T04:06:08.049Z,40.71
2019-03-25T04:07:08.038Z,40.78
2019-03-25T04:08:08.037Z,40.82
2019-03-25T04:09:08.037Z,40.88
2019-03-25T04:10:08.018Z,40.79
2019-03-25T04:11:08.009Z,40.66
2019-03-25T04:12:08.002Z,40.79
2019-03-25T04:13:07.998Z,41.20
2019-03-25T04:14:07.996Z,40.70
2019-03-25T04:15:07.998Z,40.80
2019-03-25T04:16:07.976Z,41.13
2019-03-25T04:17:07.973Z,40.96
2019-03-25T04:18:07.963Z,40.78
2019-03-25T04:19:07.961Z,40.91
2019-03-25T04:20:07.952Z,40.82
2019-03-25T04:21:07.943Z,41.11
2019-03-25T04:22:07.940Z,41.05
2019-03-25T04:23:07.929Z,40.80
2019-03-25T04:24:07.920Z,41.04
2019-03-25T04:25:07.913Z,40.85
2019-03-25T04:26:07.909Z,41.07
2019-03-25T04:27:07.917Z,40.99
2019-03-25T04:28:07.909Z,40.82
2019-03-25T04:29:07.924Z,41.36
2019-03-25T04:30:07.906Z,40.99
2019-03-25T04:31:07.902Z,40.89
2019-03-25T04:32:07.893Z,41.29
2019-03-25T04:33:07.883Z,41.03
2019-03-25T04:34:07.897Z,40.79
2019-03-25T04:35:07.868Z,41.04
2019-03-25T04:36:07.860Z,41.10
2019-03-25T04:37:07.856Z,40.81
2019-03-25T04:38:07.852Z,41.41
2019-03-25T04:39:07.843Z,40.84
2019-03-25T04:40:07.837Z,41.23
2019-03-25T04:41:07.830Z,41.10
2019-03-25T04:42:07.826Z,41.19
2019-03-25T04:43:07.821Z,41.35
2019-03-25T04:44:07.809Z,40.89
2019-03-25T04:45:07.808Z,40.95
2019-03-25T04:46:07.797Z,41.44
2019-03-25T04:47:07.790Z,41.39
2019-03-25T04:48:07.784Z,41.34
2019-03-25T04:49:07.780Z,41.05
2019-03-25T04:50:07.779Z,41.23
2019-03-25T04:51:07.764Z,41.04
2019-03-25T04:52:07.755Z,41.12
2019-03-25T04:53:07.750Z,41.28
2019-03-25T04:54:07.742Z,41.24
2019-03-25T04:55:07.735Z,41.26
2019-03-25T04:56:07.745Z,41.33
2019-03-25T04:57:07.725Z,41.24
2019-03-25T04:58:07.718Z,41.30
2019-03-25T04:59:07.711Z,41.11
2019-03-25T05:00:07.704Z,41.07
2019-03-25T05:01:07.698Z,42.23
2019-03-25T05:02:07.694Z,40.94
2019-03-25T05:03:07.688Z,41.11
2019-03-25T05:04:07.690Z,41.24
2019-03-25T05:05:07.691Z,41.27
2019-03-25T05:06:07.670Z,41.30
2019-03-25T05:07:07.663Z,41.65
2019-03-25T05:08:07.659Z,41.04
2019-03-25T05:09:07.656Z,41.52
2019-03-25T05:10:07.647Z,41.46
2019-03-25T05:11:07.642Z,41.20
2019-03-25T05:12:07.636Z,41.07
2019-03-25T05:13:07.630Z,41.22
2019-03-25T05:14:07.623Z,41.44
2019-03-25T05:15:07.615Z,40.97
2019-03-25T05:16:07.610Z,40.89
2019-03-25T05:17:07.607Z,40.93
2019-03-25T05:18:07.598Z,41.14
2019-03-25T05:19:07.592Z,41.00
2019-03-25T05:20:07.585Z,41.83
2019-03-25T05:21:07.629Z,41.06
2019-03-25T05:22:07.569Z,41.52
2019-03-25T05:23:07.565Z,41.08
2019-03-25T05:24:07.555Z,41.32
2019-03-25T05:25:07.548Z,41.53
2019-03-25T05:26:07.544Z,41.27
2019-03-25T05:27:07.537Z,41.52
2019-03-25T05:28:07.536Z,41.38
2019-03-25T05:29:07.525Z,41.25
2019-03-25T05:30:07.523Z,41.79
2019-03-25T05:31:07.512Z,42.17
2019-03-25T05:32:07.507Z,41.34
2019-03-25T05:33:07.499Z,41.67
2019-03-25T05:34:07.491Z,41.26
2019-03-25T05:35:07.491Z,41.27
2019-03-25T05:36:07.481Z,41.71
2019-03-25T05:37:07.476Z,41.49
2019-03-25T05:38:07.469Z,41.61
2019-03-25T05:39:07.461Z,41.79
2019-03-25T05:40:07.461Z,41.28
2019-03-25T05:41:07.452Z,41.48
2019-03-25T05:42:07.445Z,41.59
2019-03-25T05:43:07.442Z,41.51
2019-03-25T05:44:07.434Z,41.75
2019-03-25T05:45:07.447Z,41.34
2019-03-25T05:46:07.420Z,41.51
2019-03-25T05:47:07.412Z,41.57
2019-03-25T05:48:07.407Z,41.79
2019-03-25T05:49:07.403Z,41.60
2019-03-25T05:50:09.124Z,41.74
2019-03-25T05:51:07.388Z,41.41
2019-03-25T05:52:07.383Z,42.01
2019-03-25T05:53:07.373Z,41.44
2019-03-25T05:54:07.367Z,41.51
2019-03-25T05:55:07.359Z,41.03
2019-03-25T05:56:07.354Z,41.46
2019-03-25T05:57:07.348Z,41.14
2019-03-25T05:58:07.342Z,41.30
2019-03-25T05:59:07.332Z,42.39
2019-03-25T06:00:07.328Z,41.36
2019-03-25T06:01:07.324Z,41.24
2019-03-25T06:02:07.315Z,41.45
2019-03-25T06:03:07.307Z,41.29
2019-03-25T06:04:07.301Z,41.24
2019-03-25T06:05:07.295Z,41.25
2019-03-25T06:06:07.287Z,41.96
2019-03-25T06:07:07.284Z,42.05
2019-03-25T06:08:07.278Z,41.75
2019-03-25T06:09:07.273Z,41.59
2019-03-25T06:10:07.267Z,41.24
2019-03-25T06:11:07.260Z,41.25
2019-03-25T06:12:07.258Z,41.75
2019-03-25T06:13:07.248Z,41.67
2019-03-25T06:14:07.241Z,41.25
2019-03-25T06:15:07.234Z,41.46
2019-03-25T06:16:07.238Z,41.26
2019-03-25T06:17:07.223Z,42.01
2019-03-25T06:18:07.215Z,41.32
2019-03-25T06:19:07.209Z,41.18
2019-03-25T06:20:07.206Z,42.08
2019-03-25T06:21:07.199Z,42.01
2019-03-25T06:22:07.191Z,41.83
2019-03-25T06:23:07.186Z,42.03
2019-03-25T06:24:08.602Z,41.69
2019-03-25T06:25:07.173Z,41.49
2019-03-25T06:26:07.166Z,41.40
2019-03-25T06:27:14.099Z,41.63
2019-03-25T06:29:34.948Z,41.55
2019-03-25T06:30:34.940Z,41.98
2019-03-25T06:31:34.933Z,41.63
2019-03-25T06:32:34.926Z,41.45
2019-03-25T06:33:34.919Z,41.82
2019-03-25T06:34:34.915Z,41.82
2019-03-25T06:35:34.912Z,41.49
2019-03-25T06:36:34.902Z,41.90
2019-03-25T06:37:34.897Z,41.31
2019-03-25T06:38:34.887Z,41.32
2019-03-25T06:39:34.882Z,41.80
2019-03-25T06:40:34.875Z,41.90
2019-03-25T06:41:34.870Z,41.53
2019-03-25T06:42:34.884Z,42.82
2019-03-25T06:43:34.879Z,41.79
2019-03-25T06:44:34.872Z,41.91
2019-03-25T06:45:34.868Z,42.28
2019-03-25T06:46:34.860Z,41.48
2019-03-25T06:47:34.854Z,41.31
2019-03-25T06:48:34.848Z,41.85
2019-03-25T06:49:34.842Z,41.70
2019-03-25T06:50:34.833Z,41.30
2019-03-25T06:51:34.828Z,43.23
2019-03-25T06:52:34.819Z,41.55
2019-03-25T06:53:34.816Z,41.90
2019-03-25T06:54:34.807Z,42.18
2019-03-25T06:55:34.799Z,41.78
2019-03-25T06:56:34.791Z,41.64
2019-03-25T06:57:34.787Z,41.71
2019-03-25T06:58:34.777Z,41.69
2019-03-25T06:59:34.772Z,41.49
2019-03-25T07:00:34.810Z,41.80
2019-03-25T07:01:34.754Z,41.93
2019-03-25T07:02:34.752Z,41.60
2019-03-25T07:03:34.742Z,41.96
2019-03-25T07:04:34.735Z,41.83
2019-03-25T07:05:34.740Z,41.93
2019-03-25T07:06:34.724Z,41.76
2019-03-25T07:07:34.717Z,41.84
2019-03-25T07:08:34.711Z,41.59
2019-03-25T07:09:34.905Z,42.12
2019-03-25T07:10:34.698Z,41.57
2019-03-25T07:11:34.691Z,41.64
2019-03-25T07:12:34.683Z,42.00
2019-03-25T07:13:34.678Z,42.14
2019-03-25T07:14:34.670Z,41.87
2019-03-25T07:15:34.663Z,41.47
2019-03-25T07:16:34.656Z,41.62
2019-03-25T07:17:34.672Z,41.62
2019-03-25T07:18:34.662Z,41.93
2019-03-25T07:19:34.655Z,41.87
2019-03-25T07:20:34.651Z,41.96
2019-03-25T07:21:34.665Z,41.72
2019-03-25T07:22:34.663Z,41.79
2019-03-25T07:23:34.655Z,41.64
2019-03-25T07:24:34.647Z,41.60
2019-03-25T07:25:34.642Z,41.36
2019-03-25T07:26:34.638Z,41.69
2019-03-25T07:27:37.004Z,41.68
2019-03-25T07:28:34.625Z,42.04
2019-03-25T07:29:34.619Z,41.62
2019-03-25T07:30:34.611Z,42.74
2019-03-25T07:31:34.603Z,41.61
2019-03-25T07:32:34.598Z,41.62
2019-03-25T07:33:34.590Z,41.98
2019-03-25T07:34:34.579Z,41.69
2019-03-25T07:35:34.576Z,41.48
2019-03-25T07:36:34.567Z,41.68
2019-03-25T07:37:34.609Z,41.38
2019-03-25T07:38:34.553Z,41.56
2019-03-25T07:39:34.546Z,42.48
2019-03-25T07:40:34.540Z,41.87
2019-03-25T07:41:34.534Z,42.28
2019-03-25T07:42:34.525Z,41.24
2019-03-25T07:43:34.520Z,41.64
2019-03-25T07:44:34.515Z,41.41
2019-03-25T07:45:34.509Z,41.49
2019-03-25T07:46:34.499Z,41.51
2019-03-25T07:47:34.493Z,41.23
2019-03-25T07:48:34.488Z,41.41
2019-03-25T07:49:34.479Z,41.55
2019-03-25T07:50:34.474Z,41.94
2019-03-25T07:51:34.467Z,42.35
2019-03-25T07:52:34.461Z,41.54
2019-03-25T07:53:34.453Z,41.68
2019-03-25T07:54:34.454Z,41.46
2019-03-25T07:55:34.446Z,41.61
2019-03-25T07:56:34.435Z,41.55
2019-03-25T07:57:34.450Z,41.56
2019-03-25T07:58:34.444Z,41.56
2019-03-25T07:59:34.432Z,41.66
2019-03-25T08:00:34.415Z,42.08
2019-03-25T08:01:34.437Z,41.90
2019-03-25T08:02:34.401Z,41.93
2019-03-25T08:03:34.391Z,41.99
2019-03-25T08:04:34.393Z,41.76
2019-03-25T08:05:34.399Z,42.14
2019-03-25T08:06:34.378Z,41.61
2019-03-25T08:07:34.377Z,41.53
2019-03-25T08:08:34.355Z,42.06
2019-03-25T08:09:34.356Z,45.29
2019-03-25T08:10:34.369Z,50.08
2019-03-25T08:11:34.362Z,45.24
2019-03-25T08:12:34.335Z,41.23
2019-03-25T08:13:34.319Z,47.68
2019-03-25T08:14:34.313Z,45.00
2019-03-25T08:15:34.320Z,42.12
2019-03-25T08:16:34.302Z,41.45
2019-03-25T08:17:34.294Z,41.15
2019-03-25T08:18:34.287Z,42.66
2019-03-25T08:19:34.290Z,43.71
2019-03-25T08:20:34.275Z,42.31
2019-03-25T08:21:34.272Z,48.13
2019-03-25T08:22:34.263Z,48.13
2019-03-25T08:23:34.258Z,49.78
2019-03-25T08:24:34.255Z,43.72
2019-03-25T08:25:34.245Z,47.77
2019-03-25T08:26:34.236Z,56.87
2019-03-25T08:27:34.234Z,56.41
2019-03-25T08:28:34.224Z,52.25
2019-03-25T08:29:34.216Z,41.40
2019-03-25T08:30:34.213Z,41.30
2019-03-25T08:31:34.204Z,41.50
2019-03-25T08:32:34.199Z,41.63
2019-03-25T08:33:34.192Z,55.84
2019-03-25T08:34:34.185Z,53.68
2019-03-25T08:35:34.189Z,54.34
2019-03-25T08:36:34.182Z,58.57
2019-03-25T08:37:34.174Z,60.33
2019-03-25T08:38:34.166Z,48.20
2019-03-25T08:39:34.161Z,41.26
2019-03-25T08:40:34.155Z,51.26
2019-03-25T08:41:34.149Z,53.38
2019-03-25T08:42:34.140Z,40.97
2019-03-25T08:43:34.133Z,41.88
2019-03-25T08:44:34.127Z,50.83
2019-03-25T08:45:34.122Z,59.12
2019-03-25T08:46:34.116Z,59.52
2019-03-25T08:47:34.108Z,60.00
2019-03-25T08:48:34.100Z,59.17
2019-03-25T08:49:34.093Z,52.77
2019-03-25T08:50:34.085Z,42.21
2019-03-25T08:51:34.080Z,41.54
2019-03-25T08:52:34.073Z,42.05
2019-03-25T08:53:34.063Z,42.37
2019-03-25T08:54:34.055Z,57.17
2019-03-25T08:55:34.050Z,57.04
2019-03-25T08:56:34.044Z,58.14
2019-03-25T08:57:34.036Z,58.62
2019-03-25T08:58:34.029Z,58.26
2019-03-25T08:59:34.172Z,57.49
2019-03-25T09:00:34.029Z,56.48
2019-03-25T09:01:34.022Z,57.13
2019-03-25T09:02:34.015Z,41.14
2019-03-25T09:03:34.010Z,40.17
2019-03-25T09:04:34.000Z,40.30
2019-03-25T09:05:33.995Z,40.96
2019-03-25T09:06:33.989Z,40.13
2019-03-25T09:07:33.982Z,40.06
2019-03-25T09:08:33.975Z,40.35
2019-03-25T09:09:33.969Z,40.24
2019-03-25T09:10:33.962Z,40.17
2019-03-25T09:11:33.957Z,40.06
2019-03-25T09:12:33.949Z,40.34
2019-03-25T09:13:33.944Z,41.19
2019-03-25T09:14:33.937Z,41.07
2019-03-25T09:15:33.931Z,40.58
2019-03-25T09:16:33.926Z,40.96
2019-03-25T09:17:33.920Z,41.06
2019-03-25T09:18:33.915Z,44.13
2019-03-25T09:19:33.906Z,56.47
2019-03-25T09:20:33.902Z,56.15
2019-03-25T09:21:33.896Z,51.00
2019-03-25T09:22:33.888Z,40.86
2019-03-25T09:23:33.882Z,41.52
2019-03-25T09:24:33.876Z,51.82
2019-03-25T09:25:33.869Z,53.40
2019-03-25T09:26:33.865Z,49.37
2019-03-25T09:27:33.856Z,41.97
2019-03-25T09:28:33.848Z,40.92
2019-03-25T09:29:33.841Z,48.50
2019-03-25T09:30:33.834Z,55.72
2019-03-25T09:31:36.923Z,55.99
2019-03-25T09:32:33.824Z,57.28
2019-03-25T09:33:33.815Z,44.50
2019-03-25T09:34:33.809Z,40.55
2019-03-25T09:35:33.802Z,41.59
2019-03-25T09:36:33.830Z,56.52
2019-03-25T09:37:33.787Z,48.85
2019-03-25T09:38:33.782Z,52.57
2019-03-25T09:39:33.775Z,53.26
2019-03-25T09:40:33.767Z,53.47
2019-03-25T09:41:33.759Z,46.02
2019-03-25T09:42:33.753Z,41.20
2019-03-25T09:43:33.746Z,53.44
2019-03-25T09:44:33.741Z,48.34
2019-03-25T09:45:33.733Z,41.81
2019-03-25T09:46:33.729Z,48.09
2019-03-25T09:47:33.722Z,41.66
2019-03-25T09:48:33.718Z,44.23
2019-03-25T09:49:33.709Z,53.53
2019-03-25T09:50:33.705Z,51.72
2019-03-25T09:51:33.695Z,46.35
2019-03-25T09:52:38.518Z,55.11
2019-03-25T09:53:33.683Z,39.97
2019-03-25T09:54:33.701Z,40.52
2019-03-25T09:55:33.692Z,47.95
2019-03-25T09:56:33.688Z,51.02
2019-03-25T09:57:33.682Z,40.68
2019-03-25T09:58:36.614Z,40.68
2019-03-25T09:59:33.670Z,40.47
2019-03-25T10:00:33.664Z,41.03
2019-03-25T10:01:33.657Z,41.19
2019-03-25T10:02:33.653Z,41.16
2019-03-25T10:03:33.644Z,40.70
2019-03-25T10:04:33.636Z,41.28
2019-03-25T10:05:33.687Z,40.39
2019-03-25T10:06:33.623Z,40.31
2019-03-25T10:07:33.619Z,40.74
2019-03-25T10:08:33.610Z,40.60
2019-03-25T10:09:33.605Z,40.91
2019-03-25T10:10:33.599Z,40.78
2019-03-25T10:11:33.592Z,42.30
2019-03-25T10:12:33.587Z,50.61
2019-03-25T10:13:33.591Z,41.60
2019-03-25T10:14:33.573Z,51.15
2019-03-25T10:15:33.564Z,43.16
2019-03-25T10:16:33.560Z,41.00
2019-03-25T10:17:33.559Z,41.22
2019-03-25T10:18:33.543Z,43.55
2019-03-25T10:19:33.538Z,42.77
2019-03-25T10:20:33.533Z,42.68
2019-03-25T10:21:33.529Z,40.92
2019-03-25T10:22:33.519Z,41.88
2019-03-25T10:23:33.512Z,40.85
2019-03-25T10:24:33.508Z,41.57
2019-03-25T10:25:33.500Z,40.28
2019-03-25T10:26:33.492Z,40.44
2019-03-25T10:27:33.484Z,40.62
2019-03-25T10:28:33.510Z,41.10
2019-03-25T10:29:33.498Z,41.45
2019-03-25T10:30:33.489Z,41.55
2019-03-25T10:31:33.490Z,41.06
2019-03-25T10:32:33.475Z,41.06
2019-03-25T10:33:33.469Z,41.31
2019-03-25T10:34:33.471Z,43.47
2019-03-25T10:35:33.460Z,41.31
2019-03-25T10:36:33.454Z,41.88
2019-03-25T10:37:33.447Z,41.30
2019-03-25T10:38:33.439Z,41.56
2019-03-25T10:39:33.434Z,41.34
2019-03-25T10:40:33.425Z,41.09
2019-03-25T10:41:33.424Z,41.73
2019-03-25T10:42:33.412Z,41.40
2019-03-25T10:43:33.407Z,41.17
2019-03-25T10:44:33.399Z,41.21
2019-03-25T10:45:33.393Z,41.11
2019-03-25T10:46:33.387Z,41.33
2019-03-25T10:47:33.379Z,41.73
2019-03-25T10:48:33.376Z,40.64
2019-03-25T10:49:33.370Z,40.88
2019-03-25T10:50:33.385Z,40.86
2019-03-25T10:51:33.382Z,41.13
2019-03-25T10:52:33.373Z,41.13
2019-03-25T10:53:33.364Z,42.11
2019-03-25T10:54:33.451Z,41.38
2019-03-25T10:55:33.356Z,40.87
2019-03-25T10:56:33.355Z,41.04
2019-03-25T10:57:33.342Z,41.10
2019-03-25T10:58:33.336Z,41.08
2019-03-25T10:59:33.330Z,40.73
2019-03-25T11:00:33.323Z,41.32
2019-03-25T11:01:33.323Z,41.15
2019-03-25T11:02:33.310Z,41.45
2019-03-25T11:03:33.303Z,41.24
2019-03-25T11:04:33.298Z,42.09
2019-03-25T11:05:33.296Z,41.33
2019-03-25T11:06:33.283Z,41.17
2019-03-25T11:07:33.363Z,41.48
2019-03-25T11:08:33.273Z,41.15
2019-03-25T11:09:33.268Z,40.77
2019-03-25T11:10:33.258Z,41.16
2019-03-25T11:11:33.250Z,41.32
2019-03-25T11:12:33.246Z,41.38
2019-03-25T11:13:33.234Z,41.30
2019-03-25T11:14:33.230Z,41.10
2019-03-25T11:15:33.224Z,41.29
2019-03-25T11:16:33.219Z,41.18
2019-03-25T11:17:33.214Z,41.07
2019-03-25T11:18:33.206Z,40.72
2019-03-25T11:19:33.225Z,40.92
2019-03-25T11:20:33.220Z,41.03
2019-03-25T11:21:33.208Z,41.68
2019-03-25T11:22:33.205Z,42.05
2019-03-25T11:23:33.198Z,41.14
2019-03-25T11:24:33.187Z,41.40
2019-03-25T11:25:33.182Z,41.81
2019-03-25T11:26:33.173Z,41.00
2019-03-25T11:27:33.167Z,41.27
2019-03-25T11:28:33.160Z,41.13
2019-03-25T11:29:33.156Z,41.39
2019-03-25T11:30:33.151Z,41.24
2019-03-25T11:31:33.145Z,42.34
2019-03-25T11:32:33.136Z,41.35
2019-03-25T11:33:33.131Z,42.02
2019-03-25T11:34:33.144Z,40.87
2019-03-25T11:35:33.119Z,41.72
2019-03-25T11:36:33.114Z,43.24
2019-03-25T11:37:33.103Z,42.06
2019-03-25T11:38:33.099Z,41.48
2019-03-25T11:39:33.114Z,41.14
2019-03-25T11:40:33.108Z,40.68
2019-03-25T11:41:33.102Z,41.05
2019-03-25T11:42:33.095Z,41.60
2019-03-25T11:43:33.090Z,41.26
2019-03-25T11:44:33.085Z,41.05
2019-03-25T11:45:33.075Z,40.86
2019-03-25T11:46:33.068Z,41.06
2019-03-25T11:47:33.066Z,41.46
2019-03-25T11:48:33.061Z,41.20
2019-03-25T11:49:33.050Z,40.98
2019-03-25T11:50:33.044Z,41.09
2019-03-25T11:51:33.036Z,40.50
2019-03-25T11:52:33.031Z,40.77
2019-03-25T11:53:33.021Z,40.76
2019-03-25T11:54:33.016Z,41.24
2019-03-25T11:55:33.009Z,42.28
2019-03-25T11:56:33.002Z,41.28
2019-03-25T11:57:32.997Z,41.19
2019-03-25T11:58:32.992Z,41.24
2019-03-25T11:59:32.986Z,41.77
2019-03-25T12:00:32.982Z,41.58
2019-03-25T12:01:32.974Z,41.59
2019-03-25T12:02:32.964Z,41.47
2019-03-25T12:03:32.958Z,41.23
2019-03-25T12:04:32.951Z,41.23
2019-03-25T12:05:32.946Z,41.42
2019-03-25T12:06:32.939Z,42.16
2019-03-25T12:07:32.932Z,40.90
2019-03-25T12:08:32.924Z,41.52
2019-03-25T12:09:32.940Z,41.75
2019-03-25T12:10:32.937Z,41.42
2019-03-25T12:11:32.927Z,41.35
2019-03-25T12:12:32.920Z,41.32
2019-03-25T12:13:32.914Z,41.09
2019-03-25T12:14:32.909Z,40.76
2019-03-25T12:15:32.901Z,41.20
2019-03-25T12:16:32.895Z,40.93
2019-03-25T12:17:32.888Z,40.95
2019-03-25T12:18:32.880Z,40.97
2019-03-25T12:19:32.875Z,41.29
2019-03-25T12:20:32.869Z,40.79
2019-03-25T12:21:32.864Z,40.86
2019-03-25T12:22:32.907Z,41.91
2019-03-25T12:23:32.853Z,41.16
2019-03-25T12:24:32.855Z,41.94
2019-03-25T12:25:32.836Z,41.22
2019-03-25T12:26:32.830Z,41.02
2019-03-25T12:27:32.903Z,41.10
2019-03-25T12:28:32.843Z,41.53
2019-03-25T12:29:32.843Z,41.10
2019-03-25T12:30:32.829Z,40.92
2019-03-25T12:31:32.824Z,41.27
2019-03-25T12:32:32.816Z,40.96
2019-03-25T12:33:32.810Z,40.70
2019-03-25T12:34:32.986Z,40.62
2019-03-25T12:35:32.799Z,40.73
2019-03-25T12:36:32.819Z,41.58
2019-03-25T12:37:32.805Z,41.25
2019-03-25T12:38:32.798Z,40.59
2019-03-25T12:39:32.791Z,40.77
2019-03-25T12:40:32.784Z,41.24
2019-03-25T12:41:32.775Z,40.83
2019-03-25T12:42:32.771Z,40.69
2019-03-25T12:43:32.763Z,40.48
2019-03-25T12:44:32.755Z,40.83
2019-03-25T12:45:32.751Z,41.54
2019-03-25T12:46:32.743Z,41.06
2019-03-25T12:47:32.737Z,41.32
2019-03-25T12:48:32.730Z,41.67
2019-03-25T12:49:32.726Z,41.60
2019-03-25T12:50:32.741Z,40.51
2019-03-25T12:51:32.733Z,40.72
2019-03-25T12:52:32.723Z,40.69
2019-03-25T12:53:32.716Z,40.87
2019-03-25T12:54:32.761Z,40.97
2019-03-25T12:55:32.704Z,41.10
2019-03-25T12:56:32.696Z,41.30
2019-03-25T12:57:32.689Z,41.02